createdAt,value
2022-09-26T00:01:22.121Z,82.42
2022-09-26T00:03:52.154Z,82.48
2022-09-26T00:06:20.073Z,82.52
2022-09-26T00:08:48.012Z,82.11
2022-09-26T00:11:20.859Z,82.51
2022-09-26T00:13:52.769Z,82.27
2022-09-26T00:16:20.247Z,82.90
2022-09-26T00:18:51.429Z,83.48
2022-09-26T00:21:18.609Z,82.82
2022-09-26T00:23:45.620Z,82.82
2022-09-26T00:26:17.877Z,82.64
2022-09-26T00:28:44.501Z,83.13
2022-09-26T00:31:18.562Z,82.81
2022-09-26T00:33:45.070Z,83.73
2022-09-26T00:36:11.727Z,83.79
2022-09-26T00:38:39.057Z,84.25
2022-09-26T00:41:06.125Z,83.91
2022-09-26T00:43:38.753Z,84.71
2022-09-26T00:46:37.474Z,84.60
2022-09-26T00:49:37.921Z,84.40
2022-09-26T00:52:06.718Z,84.53
2022-09-26T00:54:36.345Z,85.05
2022-09-26T00:57:10.995Z,85.19
2022-09-26T00:59:43.837Z,84.92
2022-09-26T01:02:11.386Z,84.81
2022-09-26T01:04:41.453Z,84.59
2022-09-26T01:07:14.331Z,84.46
2022-09-26T01:09:41.015Z,84.64
2022-09-26T01:12:08.863Z,83.52
2022-09-26T01:14:37.834Z,84.27
2022-09-26T01:17:05.149Z,83.14
2022-09-26T01:19:43.256Z,82.74
2022-09-26T01:22:35.732Z,82.34
2022-09-26T01:25:24.089Z,82.68
2022-09-26T01:28:08.972Z,83.09
2022-09-26T01:30:56.497Z,82.53
2022-09-26T01:33:25.977Z,83.02
2022-09-26T01:36:11.247Z,82.90
2022-09-26T01:39:14.988Z,83.49
2022-09-26T01:42:07.284Z,83.59
2022-09-26T01:44:49.157Z,83.12
2022-09-26T01:47:31.943Z,83.98
2022-09-26T01:50:12.749Z,84.16
2022-09-26T01:52:59.577Z,84.01
2022-09-26T01:55:46.485Z,84.56
2022-09-26T01:58:18.728Z,84.33
2022-09-26T02:00:47.923Z,83.89
2022-09-26T02:03:19.507Z,83.68
2022-09-26T02:05:58.325Z,83.21
2022-09-26T02:08:28.633Z,84.77
2022-09-26T02:11:08.065Z,84.18
2022-09-26T02:13:46.609Z,84.27
2022-09-26T02:16:22.930Z,84.59
2022-09-26T02:19:06.718Z,85.19
2022-09-26T02:21:33.159Z,85.80
2022-09-26T02:23:59.613Z,86.08
2022-09-26T02:26:26.725Z,86.40
2022-09-26T02:28:53.122Z,86.14
2022-09-26T02:31:23.460Z,86.17
2022-09-26T02:33:51.638Z,85.81
2022-09-26T02:36:22.158Z,86.25
2022-09-26T02:38:48.777Z,86.79
2022-09-26T02:41:37.649Z,86.65
2022-09-26T02:44:44.873Z,85.99
2022-09-26T02:47:33.639Z,86.42
2022-09-26T02:50:11.802Z,86.40
2022-09-26T02:52:38.072Z,86.69
2022-09-26T02:55:37.691Z,86.69
2022-09-26T02:58:20.563Z,86.41
2022-09-26T03:00:59.173Z,85.95
2022-09-26T03:03:57.620Z,86.66
2022-09-26T03:06:30.242Z,86.55
2022-09-26T03:08:58.815Z,86.05
2022-09-26T03:11:28.481Z,86.26
2022-09-26T03:13:57.978Z,85.90
2022-09-26T03:16:28.689Z,85.48
2022-09-26T03:19:14.399Z,85.21
2022-09-26T03:21:41.002Z,84.96
2022-09-26T03:24:07.479Z,85.85
2022-09-26T03:26:34.833Z,85.30
2022-09-26T03:29:01.259Z,85.42
2022-09-26T03:31:28.273Z,85.27
2022-09-26T03:33:54.767Z,84.64
2022-09-26T03:36:22.443Z,84.18
2022-09-26T03:38:48.840Z,84.50
2022-09-26T03:41:15.230Z,84.69
2022-09-26T03:43:43.649Z,83.33
2022-09-26T03:46:12.277Z,83.83
2022-09-26T03:48:39.276Z,83.39
2022-09-26T03:51:08.711Z,82.28
2022-09-26T03:53:37.772Z,83.36
2022-09-26T03:56:16.294Z,82.18
2022-09-26T03:58:43.648Z,82.46
2022-09-26T04:01:12.966Z,81.71
2022-09-26T04:03:46.431Z,82.27
2022-09-26T04:06:19.702Z,82.00
2022-09-26T04:08:48.036Z,80.60
2022-09-26T04:11:19.148Z,80.58
2022-09-26T04:13:51.852Z,80.82
2022-09-26T04:16:23.729Z,80.46
2022-09-26T04:18:56.675Z,81.27
2022-09-26T04:21:24.561Z,80.26
2022-09-26T04:23:53.063Z,80.91
2022-09-26T04:26:23.665Z,80.69
2022-09-26T04:28:54.596Z,79.84
2022-09-26T04:31:22.154Z,80.19
2022-09-26T04:33:49.015Z,79.89
2022-09-26T04:36:16.975Z,80.00
2022-09-26T04:38:43.534Z,80.01
2022-09-26T04:41:16.318Z,80.19
2022-09-26T04:43:42.795Z,80.34
2022-09-26T04:46:14.954Z,79.19
2022-09-26T04:48:44.852Z,79.19
2022-09-26T04:51:13.242Z,80.23
2022-09-26T04:53:41.450Z,79.82
2022-09-26T04:56:09.770Z,80.17
2022-09-26T04:58:38.031Z,80.60
2022-09-26T05:01:06.842Z,79.97
2022-09-26T05:03:33.655Z,79.86
2022-09-26T05:06:00.184Z,80.04
2022-09-26T05:08:26.921Z,81.06
2022-09-26T05:10:55.639Z,80.30
2022-09-26T05:13:26.258Z,80.98
2022-09-26T05:15:55.700Z,81.36
2022-09-26T05:18:23.511Z,80.27
2022-09-26T05:20:50.795Z,79.65
2022-09-26T05:23:44.387Z,79.66
2022-09-26T05:26:23.314Z,79.92
2022-09-26T05:29:06.927Z,79.51
2022-09-26T05:31:37.716Z,80.87
2022-09-26T05:34:13.098Z,79.76
2022-09-26T05:36:42.894Z,80.17
2022-09-26T05:39:29.387Z,80.98
2022-09-26T05:41:55.831Z,80.67
2022-09-26T05:44:22.473Z,80.25
2022-09-26T05:46:50.227Z,80.29
2022-09-26T05:49:16.760Z,80.46
2022-09-26T05:51:43.156Z,80.81
2022-09-26T05:54:10.137Z,81.24
2022-09-26T05:56:37.362Z,81.38
2022-09-26T05:59:04.746Z,82.30
2022-09-26T06:01:33.529Z,81.36
2022-09-26T06:03:59.978Z,81.93
2022-09-26T06:06:26.709Z,82.39
2022-09-26T06:08:53.054Z,82.55
2022-09-26T06:11:30.794Z,82.89
2022-09-26T06:14:00.617Z,82.19
2022-09-26T06:16:28.333Z,82.91
2022-09-26T06:18:55.707Z,82.56
2022-09-26T06:21:22.864Z,82.55
2022-09-26T06:23:49.291Z,82.53
2022-09-26T06:26:23.506Z,82.58
2022-09-26T06:28:54.814Z,82.19
2022-09-26T06:31:21.924Z,82.44
2022-09-26T06:33:55.249Z,81.70
2022-09-26T06:36:23.482Z,81.97
2022-09-26T06:38:50.398Z,82.11
2022-09-26T06:41:17.228Z,81.44
2022-09-26T06:43:47.292Z,81.12
2022-09-26T06:46:15.178Z,81.65
2022-09-26T06:48:42.084Z,81.76
2022-09-26T06:51:09.312Z,81.99
2022-09-26T06:53:35.712Z,81.31
2022-09-26T06:56:02.540Z,80.56
2022-09-26T06:58:29.090Z,81.49
2022-09-26T07:00:56.545Z,80.89
2022-09-26T07:03:26.919Z,80.50
2022-09-26T07:05:57.276Z,80.94
2022-09-26T07:08:43.224Z,81.12
2022-09-26T07:11:32.666Z,81.38
2022-09-26T07:14:00.155Z,79.96
2022-09-26T07:16:26.937Z,80.15
2022-09-26T07:18:54.077Z,80.61
2022-09-26T07:21:20.454Z,80.47
2022-09-26T07:23:46.896Z,80.41
2022-09-26T07:26:13.255Z,80.82
2022-09-26T07:28:40.008Z,80.76
2022-09-26T07:31:07.625Z,80.85
2022-09-26T07:33:33.988Z,80.52
2022-09-26T07:36:05.186Z,80.55
2022-09-26T07:38:31.876Z,81.09
2022-09-26T07:41:00.778Z,80.86
2022-09-26T07:43:53.649Z,81.51
2022-09-26T07:46:32.386Z,81.52
2022-09-26T07:49:17.086Z,81.49
2022-09-26T07:51:43.527Z,81.30
2022-09-26T07:54:09.933Z,81.44
2022-09-26T07:56:36.603Z,81.86
2022-09-26T07:59:05.192Z,81.28
2022-09-26T08:01:32.314Z,81.27
2022-09-26T08:03:58.844Z,81.89
2022-09-26T08:06:25.807Z,82.01
2022-09-26T08:08:54.988Z,81.41
2022-09-26T08:11:22.437Z,81.39
2022-09-26T08:13:49.197Z,81.68
2022-09-26T08:16:23.078Z,81.46
2022-09-26T08:18:51.388Z,81.72
2022-09-26T08:21:18.375Z,81.46
2022-09-26T08:23:46.072Z,81.99
2022-09-26T08:26:13.275Z,81.56
2022-09-26T08:28:39.715Z,80.84
2022-09-26T08:31:07.197Z,81.21
2022-09-26T08:33:38.961Z,81.13
2022-09-26T08:36:13.244Z,81.71
2022-09-26T08:38:39.791Z,82.12
2022-09-26T08:41:24.877Z,83.33
2022-09-26T08:44:22.518Z,84.25
2022-09-26T08:47:02.692Z,84.51
2022-09-26T08:49:48.268Z,84.93
2022-09-26T08:52:40.508Z,85.57
2022-09-26T08:55:18.798Z,85.63
2022-09-26T08:57:53.114Z,86.28
2022-09-26T09:00:25.243Z,87.16
2022-09-26T09:02:57.458Z,88.04
2022-09-26T09:05:32.853Z,87.75
2022-09-26T09:08:01.812Z,87.97
2022-09-26T09:10:37.935Z,88.15
2022-09-26T09:13:22.834Z,87.91
2022-09-26T09:15:58.465Z,88.45
2022-09-26T09:18:44.595Z,88.92
2022-09-26T09:21:18.764Z,88.92
2022-09-26T09:24:10.767Z,89.01
2022-09-26T09:30:17.162Z,90.10
2022-09-26T09:32:51.300Z,90.26
2022-09-26T09:35:25.284Z,89.99
2022-09-26T09:37:54.069Z,90.53
2022-09-26T09:40:37.007Z,90.23
2022-09-26T09:43:07.805Z,90.22
2022-09-26T09:45:45.062Z,90.29
2022-09-26T09:48:15.676Z,90.51
2022-09-26T09:51:00.908Z,91.06
2022-09-26T09:53:46.026Z,90.81
2022-09-26T09:56:48.428Z,90.25
2022-09-26T09:59:36.400Z,90.34
2022-09-26T10:02:37.707Z,90.75
2022-09-26T10:05:44.211Z,91.53
2022-09-26T10:08:19.670Z,90.90
2022-09-26T10:11:13.738Z,91.19
2022-09-26T10:13:43.499Z,90.82
2022-09-26T10:16:15.008Z,91.38
2022-09-26T10:19:04.067Z,91.04
2022-09-26T10:21:34.477Z,90.40
2022-09-26T10:24:06.659Z,90.73
2022-09-26T10:26:35.081Z,90.53
2022-09-26T10:29:21.387Z,90.79
2022-09-26T10:31:55.700Z,89.82
2022-09-26T10:34:28.013Z,91.17
2022-09-26T10:36:54.746Z,90.90
2022-09-26T10:39:47.836Z,90.77
2022-09-26T10:42:20.206Z,91.11
2022-09-26T10:44:49.260Z,92.08
2022-09-26T10:47:19.646Z,91.89
2022-09-26T10:49:54.463Z,91.45
2022-09-26T10:52:29.815Z,92.32
2022-09-26T10:55:06.695Z,91.77
2022-09-26T10:57:40.782Z,91.86
2022-09-26T11:00:07.942Z,91.70
2022-09-26T11:02:36.622Z,92.48
2022-09-26T11:05:24.066Z,91.58
2022-09-26T11:07:52.484Z,92.59
2022-09-26T11:10:32.438Z,92.32
2022-09-26T11:13:02.637Z,92.32
2022-09-26T11:15:29.624Z,92.67
2022-09-26T11:17:56.639Z,93.11
2022-09-26T11:20:35.462Z,93.07
2022-09-26T11:23:17.287Z,93.50
2022-09-26T11:26:19.270Z,93.30
2022-09-26T11:28:53.508Z,93.58
2022-09-26T11:31:28.962Z,93.53
2022-09-26T11:33:59.503Z,93.05
2022-09-26T11:36:25.886Z,93.35
2022-09-26T11:38:56.759Z,92.88
2022-09-26T11:41:53.563Z,93.77
2022-09-26T11:44:23.832Z,93.92
2022-09-26T11:47:13.078Z,93.15
2022-09-26T11:50:10.717Z,93.79
2022-09-26T11:53:13.253Z,92.92
2022-09-26T11:56:15.965Z,93.30
2022-09-26T11:59:02.356Z,93.26
2022-09-26T12:01:48.302Z,93.52
2022-09-26T12:05:01.059Z,93.46
2022-09-26T12:07:37.352Z,93.91
2022-09-26T12:10:06.996Z,94.07
2022-09-26T12:13:04.692Z,93.75
2022-09-26T12:15:40.146Z,94.41
2022-09-26T12:18:14.972Z,93.77
2022-09-26T12:21:06.069Z,94.52
2022-09-26T12:23:36.836Z,94.23
2022-09-26T12:26:15.735Z,94.24
2022-09-26T12:29:03.931Z,93.71
2022-09-26T12:31:31.975Z,94.16
2022-09-26T12:34:06.093Z,94.60
2022-09-26T12:37:03.043Z,94.71
2022-09-26T12:39:57.477Z,94.12
2022-09-26T12:42:58.972Z,94.27
2022-09-26T12:45:54.981Z,95.04
2022-09-26T12:49:12.850Z,94.11
2022-09-26T12:51:47.282Z,94.06
2022-09-26T12:54:44.822Z,94.86
2022-09-26T12:57:26.832Z,94.45
2022-09-26T12:59:59.315Z,95.01
2022-09-26T13:02:42.960Z,94.51
2022-09-26T13:05:45.025Z,94.51
2022-09-26T13:09:08.792Z,95.19
2022-09-26T13:11:41.183Z,95.24
2022-09-26T13:14:14.966Z,95.53
2022-09-26T13:17:09.959Z,95.63
2022-09-26T13:19:48.864Z,95.74
2022-09-26T13:22:26.051Z,95.88
2022-09-26T13:25:02.426Z,96.25
2022-09-26T13:27:36.291Z,95.10
2022-09-26T13:30:11.844Z,95.79
2022-09-26T13:32:55.135Z,95.48
2022-09-26T13:35:27.537Z,95.00
2022-09-26T13:38:14.259Z,95.28
2022-09-26T13:40:40.743Z,95.48
2022-09-26T13:43:47.551Z,95.62
2022-09-26T13:46:34.610Z,95.93
2022-09-26T13:49:19.998Z,95.42
2022-09-26T13:52:27.627Z,95.59
2022-09-26T13:55:10.284Z,95.26
2022-09-26T13:57:43.530Z,96.08
2022-09-26T14:00:23.207Z,95.53
2022-09-26T14:03:12.462Z,96.24
2022-09-26T14:05:45.945Z,94.54
2022-09-26T14:08:43.478Z,95.44
2022-09-26T14:11:19.053Z,93.97
2022-09-26T14:13:47.325Z,94.29
2022-09-26T14:16:28.972Z,94.78
2022-09-26T14:19:09.463Z,94.62
2022-09-26T14:21:56.820Z,94.46
2022-09-26T14:24:37.863Z,94.10
2022-09-26T14:27:10.296Z,94.21
2022-09-26T14:29:39.723Z,93.23
2022-09-26T14:32:10.212Z,92.88
2022-09-26T14:34:45.495Z,93.27
2022-09-26T14:37:24.159Z,93.03
2022-09-26T14:39:59.852Z,93.64
2022-09-26T14:42:38.094Z,93.29
2022-09-26T14:45:08.046Z,93.72
2022-09-26T14:47:42.660Z,94.45
2022-09-26T14:50:34.515Z,93.44
2022-09-26T14:53:50.711Z,93.55
2022-09-26T14:56:38.053Z,94.39
2022-09-26T14:59:16.630Z,94.77
2022-09-26T15:01:46.613Z,94.11
2022-09-26T15:04:20.715Z,93.96
2022-09-26T15:06:52.707Z,94.77
2022-09-26T15:09:28.118Z,95.28
2022-09-26T15:12:01.209Z,95.11
2022-09-26T15:14:49.870Z,94.76
2022-09-26T15:17:32.752Z,95.28
2022-09-26T15:20:02.595Z,95.65
2022-09-26T15:22:30.716Z,94.90
2022-09-26T15:25:18.633Z,95.33
2022-09-26T15:27:50.298Z,94.16
2022-09-26T15:30:19.352Z,94.83
2022-09-26T15:32:49.839Z,94.00
2022-09-26T15:35:16.781Z,94.59
2022-09-26T15:37:43.514Z,94.03
2022-09-26T15:40:25.656Z,94.05
2022-09-26T15:43:11.861Z,94.74
2022-09-26T15:45:49.795Z,95.13
2022-09-26T15:48:19.327Z,94.40
2022-09-26T15:50:53.967Z,94.23
2022-09-26T15:53:39.542Z,94.67
2022-09-26T15:56:16.823Z,94.56
2022-09-26T15:58:52.825Z,94.43
2022-09-26T16:01:22.567Z,94.09
2022-09-26T16:04:13.436Z,94.83
2022-09-26T16:06:42.505Z,94.77
2022-09-26T16:09:12.641Z,94.95
2022-09-26T16:11:47.506Z,94.48
2022-09-26T16:14:50.567Z,93.98
2022-09-26T16:17:38.759Z,94.51
2022-09-26T16:20:11.190Z,94.62
2022-09-26T16:22:39.988Z,93.94
2022-09-26T16:25:15.921Z,94.75
2022-09-26T16:27:42.801Z,94.78
2022-09-26T16:30:30.452Z,94.77
2022-09-26T16:33:02.937Z,94.84
2022-09-26T16:35:33.346Z,94.07
2022-09-26T16:38:03.264Z,94.60
2022-09-26T16:40:32.114Z,94.29
2022-09-26T16:43:14.653Z,94.34
2022-09-26T16:45:56.286Z,94.34
2022-09-26T16:48:51.247Z,94.20
2022-09-26T16:51:19.573Z,94.20
2022-09-26T16:53:49.488Z,94.27
2022-09-26T16:56:19.072Z,94.65
2022-09-26T16:58:57.627Z,94.20
2022-09-26T17:01:43.223Z,94.22
2022-09-26T17:04:16.149Z,94.12
2022-09-26T17:06:42.694Z,94.21
2022-09-26T17:09:21.343Z,94.14
2022-09-26T17:11:50.828Z,93.99
2022-09-26T17:14:21.765Z,94.53
2022-09-26T17:16:54.884Z,94.03
2022-09-26T17:19:23.106Z,94.59
2022-09-26T17:21:50.733Z,94.07
2022-09-26T17:24:25.447Z,94.21
2022-09-26T17:26:56.755Z,94.81
2022-09-26T17:29:27.014Z,94.54
2022-09-26T17:31:55.217Z,94.43
2022-09-26T17:34:23.034Z,94.08
2022-09-26T17:36:49.815Z,93.77
2022-09-26T17:39:25.360Z,93.42
2022-09-26T17:41:57.169Z,93.65
2022-09-26T17:44:23.703Z,93.71
2022-09-26T17:46:54.364Z,93.84
2022-09-26T17:49:27.940Z,93.24
2022-09-26T17:51:57.055Z,94.13
2022-09-26T17:54:42.428Z,93.88
2022-09-26T17:57:12.430Z,93.65
2022-09-26T17:59:42.193Z,94.42
2022-09-26T18:02:27.034Z,94.28
2022-09-26T18:04:54.066Z,94.50
2022-09-26T18:07:22.069Z,94.25
2022-09-26T18:09:51.318Z,93.91
2022-09-26T18:12:26.652Z,94.08
2022-09-26T18:28:43.051Z,92.03
2022-09-26T18:34:46.830Z,92.47
2022-09-26T18:37:13.415Z,92.13
2022-09-26T18:39:42.914Z,92.53
2022-09-26T18:43:05.607Z,91.98
2022-09-26T18:45:59.404Z,92.26
2022-09-26T18:52:36.965Z,92.17
2022-09-26T18:55:44.688Z,92.76
2022-09-26T18:58:19.318Z,92.34
2022-09-26T19:00:48.014Z,92.17
2022-09-26T19:03:15.536Z,93.10
2022-09-26T19:05:42.402Z,92.38
2022-09-26T19:08:43.256Z,92.51
2022-09-26T19:11:21.359Z,92.98
2022-09-26T19:13:53.350Z,92.99
2022-09-26T19:16:20.201Z,92.32
2022-09-26T19:18:47.728Z,92.79
2022-09-26T19:21:32.785Z,93.04
2022-09-26T19:24:03.681Z,92.37
2022-09-26T19:26:34.834Z,92.80
2022-09-26T19:29:03.479Z,92.32
2022-09-26T19:31:30.165Z,92.05
2022-09-26T19:33:57.495Z,92.35
2022-09-26T19:36:24.030Z,92.54
2022-09-26T19:38:51.287Z,92.26
2022-09-26T19:41:18.106Z,92.62
2022-09-26T19:43:44.658Z,92.25
2022-09-26T19:46:23.004Z,91.13
2022-09-26T19:48:49.458Z,91.09
2022-09-26T19:51:19.036Z,91.59
2022-09-26T19:53:45.774Z,92.09
2022-09-26T19:56:17.484Z,91.83
2022-09-26T19:58:54.270Z,92.14
2022-09-26T20:01:28.307Z,92.30
2022-09-26T20:03:54.978Z,92.02
2022-09-26T20:06:25.823Z,91.84
2022-09-26T20:09:00.522Z,92.85
2022-09-26T20:11:27.952Z,92.58
2022-09-26T20:14:13.101Z,92.52
2022-09-26T20:16:42.598Z,92.18
2022-09-26T20:19:16.454Z,92.15
2022-09-26T20:21:43.292Z,92.24
2022-09-26T20:24:18.510Z,92.65
2022-09-26T20:26:46.786Z,92.16
2022-09-26T20:29:15.092Z,93.14
2022-09-26T20:31:45.191Z,92.92
2022-09-26T20:34:12.141Z,92.00
2022-09-26T20:36:48.007Z,92.18
2022-09-26T20:39:22.955Z,91.64
2022-09-26T20:41:51.124Z,91.75
2022-09-26T20:44:27.920Z,92.03
2022-09-26T20:46:59.013Z,91.45
2022-09-26T20:49:30.159Z,92.84
2022-09-26T20:51:59.958Z,92.88
2022-09-26T20:54:32.967Z,92.15
2022-09-26T20:57:01.164Z,92.52
2022-09-26T20:59:28.753Z,92.51
2022-09-26T21:02:00.447Z,92.63
2022-09-26T21:04:34.675Z,92.15
2022-09-26T21:07:03.337Z,92.59
2022-09-26T21:09:29.817Z,92.39
2022-09-26T21:11:56.198Z,92.48
2022-09-26T21:14:22.912Z,92.19
2022-09-26T21:16:51.935Z,92.01
2022-09-26T21:19:21.836Z,92.15
2022-09-26T21:21:50.631Z,92.47
2022-09-26T21:24:24.932Z,92.39
2022-09-26T21:26:51.647Z,91.77
2022-09-26T21:29:18.310Z,92.31
2022-09-26T21:31:49.769Z,91.87
2022-09-26T21:34:23.986Z,92.48
2022-09-26T21:36:53.705Z,91.63
2022-09-26T21:39:20.136Z,92.26
2022-09-26T21:41:49.495Z,92.27
2022-09-26T21:44:24.579Z,91.53
2022-09-26T21:46:51.671Z,91.88
2022-09-26T21:49:18.618Z,91.68
2022-09-26T21:51:50.151Z,92.71
2022-09-26T21:54:29.116Z,92.25
2022-09-26T21:57:15.332Z,92.18
2022-09-26T21:59:42.758Z,92.29
2022-09-26T22:02:09.322Z,91.74
2022-09-26T22:04:35.900Z,91.88
2022-09-26T22:07:02.435Z,91.42
2022-09-26T22:09:28.817Z,92.14
2022-09-26T22:11:55.227Z,92.16
2022-09-26T22:14:21.724Z,91.84
2022-09-26T22:16:48.152Z,92.01
2022-09-26T22:19:14.894Z,91.88
2022-09-26T22:21:41.417Z,91.80
2022-09-26T22:24:07.919Z,92.08
2022-09-26T22:26:34.311Z,91.75
2022-09-26T22:29:00.676Z,91.45
2022-09-26T22:31:27.381Z,91.60
2022-09-26T22:34:00.061Z,91.28
2022-09-26T22:36:27.273Z,91.44
2022-09-26T22:38:54.884Z,91.55
2022-09-26T22:41:21.707Z,91.52
2022-09-26T22:43:49.185Z,91.28
2022-09-26T22:46:16.357Z,90.94
2022-09-26T22:48:46.046Z,91.02
2022-09-26T22:51:14.134Z,91.05
2022-09-26T22:53:41.974Z,91.59
2022-09-26T22:56:11.869Z,90.56
2022-09-26T22:58:40.962Z,90.77
2022-09-26T23:01:10.238Z,91.24
2022-09-26T23:03:36.719Z,90.51
2022-09-26T23:06:04.074Z,90.76
2022-09-26T23:08:32.415Z,90.95
2022-09-26T23:10:58.905Z,90.84
2022-09-26T23:13:26.817Z,91.10
2022-09-26T23:15:53.569Z,91.08
2022-09-26T23:18:20.738Z,90.70
2022-09-26T23:20:47.213Z,90.60
2022-09-26T23:23:14.836Z,91.30
2022-09-26T23:25:48.956Z,91.45
2022-09-26T23:28:16.973Z,90.86
2022-09-26T23:30:43.751Z,90.87
2022-09-26T23:33:10.626Z,90.75
2022-09-26T23:35:37.035Z,91.49
2022-09-26T23:38:05.417Z,91.36
2022-09-26T23:40:32.432Z,91.62
2022-09-26T23:42:59.065Z,91.04
2022-09-26T23:45:26.692Z,91.15
2022-09-26T23:47:53.081Z,91.55
2022-09-26T23:50:19.578Z,91.08
2022-09-26T23:52:45.942Z,90.64
2022-09-26T23:55:12.930Z,91.35
2022-09-26T23:57:39.301Z,90.99
